createdAt,value
2022-08-11T00:00:00.828Z,23.00
2022-08-11T00:02:35.630Z,22.60
2022-08-11T00:05:10.547Z,22.50
2022-08-11T00:07:47.847Z,22.40
2022-08-11T00:10:20.011Z,22.40
2022-08-11T00:12:56.831Z,22.20
2022-08-11T00:15:28.913Z,22.00
2022-08-11T00:18:02.391Z,21.80
2022-08-11T00:20:35.283Z,21.70
2022-08-11T00:23:08.769Z,22.00
2022-08-11T00:25:43.804Z,22.00
2022-08-11T00:28:29.133Z,22.00
2022-08-11T00:31:04.477Z,21.90
2022-08-11T00:33:41.258Z,21.70
2022-08-11T00:36:13.281Z,21.50
2022-08-11T00:38:46.243Z,21.50
2022-08-11T00:41:32.355Z,21.70
2022-08-11T00:44:20.193Z,21.60
2022-08-11T00:46:59.539Z,21.60
2022-08-11T00:49:43.645Z,21.90
2022-08-11T00:52:24.877Z,21.90
2022-08-11T00:55:47.333Z,21.90
2022-08-11T00:58:53.343Z,21.80
2022-08-11T01:01:30.208Z,21.80
2022-08-11T01:04:24.533Z,22.00
2022-08-11T01:08:01.930Z,22.10
2022-08-11T01:10:41.138Z,22.10
2022-08-11T01:13:52.215Z,21.70
2022-08-11T01:16:56.985Z,21.30
2022-08-11T01:20:46.044Z,21.10
2022-08-11T01:23:31.997Z,21.20
2022-08-11T01:26:49.140Z,21.10
2022-08-11T01:29:42.698Z,21.00
2022-08-11T01:32:58.490Z,20.90
2022-08-11T01:35:50.681Z,20.70
2022-08-11T01:38:52.085Z,20.50
2022-08-11T01:44:38.943Z,20.90
2022-08-11T01:47:53.466Z,20.90
2022-08-11T01:50:21.132Z,20.70
2022-08-11T01:53:05.853Z,20.50
2022-08-11T01:55:41.445Z,20.50
2022-08-11T01:58:17.097Z,20.40
2022-08-11T02:00:54.675Z,20.40
2022-08-11T02:03:31.159Z,20.30
2022-08-11T02:06:08.648Z,20.30
2022-08-11T02:08:50.677Z,20.20
2022-08-11T02:11:35.226Z,20.20
2022-08-11T02:14:11.205Z,20.10
2022-08-11T02:16:50.784Z,20.00
2022-08-11T02:19:53.691Z,19.90
2022-08-11T02:22:46.338Z,19.90
2022-08-11T02:25:24.546Z,19.90
2022-08-11T02:27:59.682Z,19.60
2022-08-11T02:30:34.574Z,19.50
2022-08-11T02:33:24.727Z,19.70
2022-08-11T02:36:02.360Z,19.70
2022-08-11T02:38:36.315Z,19.80
2022-08-11T02:41:31.132Z,19.80
2022-08-11T02:44:13.635Z,19.70
2022-08-11T02:46:51.195Z,19.70
2022-08-11T02:49:47.446Z,19.60
2022-08-11T02:52:23.183Z,19.50
2022-08-11T02:54:57.572Z,19.40
2022-08-11T02:57:31.541Z,19.40
2022-08-11T03:00:07.899Z,19.40
2022-08-11T03:03:21.029Z,19.30
2022-08-11T03:08:49.677Z,19.30
2022-08-11T03:11:43.505Z,19.40
2022-08-11T03:14:52.130Z,19.40
2022-08-11T03:17:28.878Z,19.20
2022-08-11T03:20:09.900Z,19.20
2022-08-11T03:22:44.295Z,19.30
2022-08-11T03:25:18.180Z,19.40
2022-08-11T03:27:54.300Z,19.50
2022-08-11T03:30:28.608Z,19.70
2022-08-11T03:33:29.009Z,19.60
2022-08-11T03:36:08.527Z,19.60
2022-08-11T03:38:48.195Z,19.40
2022-08-11T03:42:02.241Z,19.30
2022-08-11T03:44:31.581Z,19.20
2022-08-11T03:47:52.554Z,19.00
2022-08-11T03:50:26.307Z,19.00
2022-08-11T03:53:02.524Z,19.20
2022-08-11T03:55:42.095Z,19.20
2022-08-11T03:58:41.683Z,19.30
2022-08-11T04:02:01.305Z,19.10
2022-08-11T04:05:12.333Z,19.00
2022-08-11T04:08:34.598Z,18.80
2022-08-11T04:11:29.475Z,18.80
2022-08-11T04:15:00.593Z,18.70
2022-08-11T04:17:51.067Z,18.60
2022-08-11T04:20:44.985Z,18.60
2022-08-11T04:24:35.625Z,18.50
2022-08-11T04:26:42.277Z,18.50
2022-08-11T04:29:23.633Z,18.50
2022-08-11T04:32:08.333Z,18.60
2022-08-11T04:35:05.382Z,18.60
2022-08-11T04:38:30.657Z,18.40
2022-08-11T04:41:38.594Z,18.40
2022-08-11T04:45:04.420Z,18.20
2022-08-11T04:48:05.355Z,18.30
2022-08-11T04:53:56.187Z,18.50
2022-08-11T04:56:47.218Z,18.60
2022-08-11T05:00:11.279Z,18.60
2022-08-11T05:03:34.187Z,18.60
2022-08-11T05:06:40.092Z,18.80
2022-08-11T05:09:43.133Z,18.80
2022-08-11T05:12:24.006Z,19.00
2022-08-11T05:15:13.505Z,19.00
2022-08-11T05:18:05.257Z,19.10
2022-08-11T05:20:57.503Z,19.40
2022-08-11T05:23:47.445Z,19.40
2022-08-11T05:26:48.055Z,19.50
2022-08-11T05:32:23.923Z,19.60
2022-08-11T05:34:56.890Z,19.70
2022-08-11T05:37:34.786Z,19.80
2022-08-11T05:40:30.389Z,19.90
2022-08-11T05:43:21.043Z,19.90
2022-08-11T05:46:18.676Z,20.00
2022-08-11T05:49:08.129Z,20.00
2022-08-11T05:52:05.810Z,20.10
2022-08-11T05:54:49.736Z,20.50
2022-08-11T05:57:48.989Z,20.50
2022-08-11T06:00:05.325Z,20.30
2022-08-11T06:02:42.913Z,20.30
2022-08-11T06:05:15.003Z,20.40
2022-08-11T06:07:48.879Z,20.60
2022-08-11T06:10:31.414Z,20.60
2022-08-11T06:13:03.191Z,20.90
2022-08-11T06:15:36.748Z,21.30
2022-08-11T06:18:09.779Z,21.50
2022-08-11T06:20:48.529Z,21.80
2022-08-11T06:23:20.641Z,22.10
2022-08-11T06:25:52.711Z,22.20
2022-08-11T06:28:32.515Z,22.20
2022-08-11T06:33:45.240Z,22.70
2022-08-11T06:36:19.376Z,22.90
2022-08-11T06:38:57.648Z,23.10
2022-08-11T06:41:32.048Z,23.00
2022-08-11T06:44:25.520Z,22.80
2022-08-11T06:47:01.422Z,22.70
2022-08-11T06:49:56.212Z,22.60
2022-08-11T06:52:36.384Z,22.60
2022-08-11T06:55:55.832Z,22.90
2022-08-11T07:00:33.151Z,23.50
2022-08-11T07:03:07.310Z,23.80
2022-08-11T07:05:45.923Z,24.10
2022-08-11T07:09:06.852Z,24.30
2022-08-11T07:12:15.451Z,24.30
2022-08-11T07:17:28.603Z,24.80
2022-08-11T07:20:19.489Z,24.50
2022-08-11T07:23:10.831Z,24.40
2022-08-11T07:26:01.560Z,24.70
2022-08-11T07:28:53.726Z,25.00
2022-08-11T07:31:29.240Z,25.30
2022-08-11T07:34:07.013Z,25.40
2022-08-11T07:36:38.671Z,25.50
2022-08-11T07:39:13.322Z,25.70
2022-08-11T07:41:44.944Z,25.70
2022-08-11T07:44:18.232Z,25.70
2022-08-11T07:47:08.699Z,25.50
2022-08-11T07:49:58.649Z,25.70
2022-08-11T07:55:13.156Z,25.90
2022-08-11T08:01:22.381Z,26.20
2022-08-11T08:04:05.654Z,26.50
2022-08-11T08:06:59.142Z,26.70
2022-08-11T08:09:50.052Z,27.00
2022-08-11T08:12:42.285Z,26.90
2022-08-11T08:15:34.134Z,26.90
2022-08-11T08:18:09.931Z,26.90
2022-08-11T08:20:42.949Z,27.00
2022-08-11T08:23:14.374Z,27.20
2022-08-11T08:25:47.182Z,27.30
2022-08-11T08:28:21.201Z,27.10
2022-08-11T08:30:55.001Z,27.10
2022-08-11T08:33:28.729Z,27.20
2022-08-11T08:36:12.650Z,27.60
2022-08-11T08:38:47.232Z,27.60
2022-08-11T08:41:21.261Z,27.50
2022-08-11T08:43:55.786Z,27.80
2022-08-11T08:46:30.564Z,28.10
2022-08-11T08:49:04.031Z,28.20
2022-08-11T08:51:58.851Z,28.30
2022-08-11T08:54:13.145Z,28.30
2022-08-11T08:56:45.986Z,28.50
2022-08-11T08:59:18.306Z,28.40
2022-08-11T09:01:53.161Z,28.20
2022-08-11T09:04:24.777Z,28.40
2022-08-11T09:06:57.411Z,28.60
2022-08-11T09:09:29.172Z,28.40
2022-08-11T09:12:01.521Z,28.90
2022-08-11T09:14:55.726Z,29.00
2022-08-11T09:17:27.921Z,28.80
2022-08-11T09:20:01.610Z,28.70
2022-08-11T09:23:29.479Z,28.90
2022-08-11T09:28:07.710Z,29.70
2022-08-11T09:30:40.427Z,29.30
2022-08-11T09:33:14.170Z,29.10
2022-08-11T09:35:46.995Z,29.50
2022-08-11T09:38:37.948Z,29.90
2022-08-11T09:41:11.360Z,30.10
2022-08-11T09:44:04.478Z,30.00
2022-08-11T09:46:36.255Z,30.00
2022-08-11T09:49:07.596Z,30.60
2022-08-11T09:51:38.870Z,30.40
2022-08-11T09:54:11.620Z,30.60
2022-08-11T09:57:05.066Z,30.50
2022-08-11T09:59:34.882Z,30.80
2022-08-11T10:02:07.984Z,30.70
2022-08-11T10:04:42.437Z,30.80
2022-08-11T10:07:16.134Z,31.00
2022-08-11T10:12:29.846Z,31.40
2022-08-11T10:15:22.557Z,31.30
2022-08-11T10:18:13.553Z,31.40
2022-08-11T10:20:46.769Z,31.00
2022-08-11T10:24:00.919Z,31.50
2022-08-11T10:29:13.107Z,31.80
2022-08-11T10:32:04.475Z,31.30
2022-08-11T10:34:32.059Z,31.30
2022-08-11T10:37:03.945Z,31.70
2022-08-11T10:39:36.064Z,31.20
2022-08-11T10:42:41.754Z,31.90
2022-08-11T10:45:02.246Z,32.30
2022-08-11T10:47:36.371Z,32.20
2022-08-11T10:50:28.979Z,32.60
2022-08-11T10:53:18.758Z,32.50
2022-08-11T10:56:07.873Z,32.90
2022-08-11T10:58:49.622Z,33.20
2022-08-11T11:01:24.993Z,33.00
2022-08-11T11:03:59.160Z,33.10
2022-08-11T11:06:33.346Z,33.30
2022-08-11T11:09:06.897Z,33.70
2022-08-11T11:11:57.638Z,33.70
2022-08-11T11:14:49.795Z,33.70
2022-08-11T11:17:44.564Z,33.70
2022-08-11T11:20:34.561Z,33.70
2022-08-11T11:22:54.805Z,33.90
2022-08-11T11:28:32.579Z,33.50
2022-08-11T11:31:10.662Z,34.20
2022-08-11T11:34:06.222Z,34.40
2022-08-11T11:36:32.259Z,33.80
2022-08-11T11:39:03.837Z,34.20
2022-08-11T11:41:34.923Z,34.80
2022-08-11T11:44:06.385Z,35.20
2022-08-11T11:46:39.027Z,35.20
2022-08-11T11:49:16.797Z,35.10
2022-08-11T11:51:43.420Z,35.30
2022-08-11T11:54:17.164Z,35.10
2022-08-11T11:56:48.262Z,35.50
2022-08-11T11:59:39.274Z,35.80
2022-08-11T12:02:12.109Z,36.20
2022-08-11T12:04:46.057Z,36.10
2022-08-11T12:07:35.236Z,35.90
2022-08-11T12:10:07.945Z,35.90
2022-08-11T12:12:56.628Z,36.00
2022-08-11T12:16:03.633Z,36.20
2022-08-11T12:18:01.525Z,36.40
2022-08-11T12:20:34.259Z,36.60
2022-08-11T12:23:23.080Z,36.50
2022-08-11T12:26:27.002Z,36.90
2022-08-11T12:28:44.718Z,36.70
2022-08-11T12:31:15.944Z,37.10
2022-08-11T12:33:47.310Z,37.60
2022-08-11T12:36:19.853Z,37.60
2022-08-11T12:38:51.878Z,37.50
2022-08-11T12:41:41.927Z,37.50
2022-08-11T12:44:32.147Z,37.20
2022-08-11T12:47:04.896Z,37.10
2022-08-11T12:52:18.789Z,37.40
2022-08-11T12:54:54.697Z,37.20
2022-08-11T12:57:47.907Z,37.50
2022-08-11T13:00:37.586Z,38.00
2022-08-11T13:03:28.874Z,38.10
2022-08-11T13:06:02.793Z,38.20
2022-08-11T13:08:36.567Z,37.70
2022-08-11T13:11:57.059Z,38.30
2022-08-11T13:13:59.221Z,38.30
2022-08-11T13:16:34.595Z,38.30
2022-08-11T13:19:05.317Z,38.50
2022-08-11T13:21:35.953Z,38.40
2022-08-11T13:24:07.422Z,38.50
2022-08-11T13:26:56.959Z,38.30
2022-08-11T13:29:30.113Z,38.70
2022-08-11T13:32:01.712Z,37.90
2022-08-11T13:34:34.537Z,38.30
2022-08-11T13:37:06.396Z,38.50
2022-08-11T13:39:39.806Z,38.60
2022-08-11T13:42:11.072Z,38.30
2022-08-11T13:44:42.686Z,38.70
2022-08-11T13:49:53.226Z,39.20
2022-08-11T13:52:24.467Z,39.30
2022-08-11T13:54:55.774Z,39.60
2022-08-11T13:58:07.705Z,39.40
2022-08-11T14:00:01.976Z,39.20
2022-08-11T14:02:33.598Z,39.40
2022-08-11T14:07:49.700Z,39.90
2022-08-11T14:10:23.400Z,39.40
2022-08-11T14:13:14.864Z,39.30
2022-08-11T14:15:48.363Z,39.10
2022-08-11T14:18:23.095Z,38.80
2022-08-11T14:21:13.720Z,39.40
2022-08-11T14:23:46.910Z,39.30
2022-08-11T14:26:31.588Z,40.00
2022-08-11T14:29:05.068Z,40.60
2022-08-11T14:31:38.242Z,39.90
2022-08-11T14:34:12.759Z,40.20
2022-08-11T14:36:46.289Z,39.90
2022-08-11T14:39:18.994Z,40.30
2022-08-11T14:42:13.270Z,40.10
2022-08-11T14:45:04.052Z,39.50
2022-08-11T14:47:38.010Z,39.80
2022-08-11T14:50:14.115Z,40.20
2022-08-11T14:52:51.087Z,40.40
2022-08-11T14:55:41.584Z,40.60
2022-08-11T14:58:14.584Z,40.40
2022-08-11T15:00:46.333Z,40.40
2022-08-11T15:03:18.447Z,40.40
2022-08-11T15:05:56.055Z,40.10
2022-08-11T15:08:27.433Z,40.20
2022-08-11T15:10:59.621Z,40.70
2022-08-11T15:13:32.188Z,40.70
2022-08-11T15:16:20.445Z,40.40
2022-08-11T15:18:51.757Z,39.80
2022-08-11T15:21:40.118Z,40.40
2022-08-11T15:24:20.182Z,39.80
2022-08-11T15:27:10.040Z,40.20
2022-08-11T15:30:00.712Z,40.00
2022-08-11T15:32:50.751Z,40.60
2022-08-11T15:35:39.951Z,40.40
2022-08-11T15:38:13.617Z,40.20
2022-08-11T15:41:02.361Z,40.20
2022-08-11T15:43:53.770Z,40.00
2022-08-11T15:46:28.592Z,39.70
2022-08-11T15:49:02.530Z,39.30
2022-08-11T15:51:36.843Z,39.40
2022-08-11T15:54:11.579Z,39.00
2022-08-11T15:56:45.218Z,39.30
2022-08-11T15:59:41.959Z,39.40
2022-08-11T16:02:29.060Z,39.10
2022-08-11T16:05:02.338Z,38.50
2022-08-11T16:07:40.691Z,37.30
2022-08-11T16:10:11.141Z,36.60
2022-08-11T16:12:51.173Z,36.50
2022-08-11T16:15:41.068Z,36.10
2022-08-11T16:18:12.300Z,35.60
2022-08-11T16:20:43.521Z,35.10
2022-08-11T16:23:16.259Z,34.80
2022-08-11T16:27:02.079Z,34.60
2022-08-11T16:28:21.997Z,34.60
2022-08-11T16:30:55.245Z,34.70
2022-08-11T16:33:51.187Z,34.40
2022-08-11T16:36:18.145Z,34.30
2022-08-11T16:39:08.143Z,34.00
2022-08-11T16:41:59.101Z,33.80
2022-08-11T16:44:49.557Z,33.80
2022-08-11T16:48:03.571Z,33.50
2022-08-11T16:49:57.464Z,33.50
2022-08-11T16:52:46.654Z,33.50
2022-08-11T16:55:51.359Z,33.60
2022-08-11T16:58:07.599Z,33.40
2022-08-11T17:00:40.787Z,33.40
2022-08-11T17:03:41.620Z,33.40
2022-08-11T17:06:32.636Z,33.20
2022-08-11T17:09:23.120Z,33.20
2022-08-11T17:12:14.764Z,33.00
2022-08-11T17:14:48.519Z,32.80
2022-08-11T17:17:22.530Z,32.60
2022-08-11T17:20:40.541Z,32.50
2022-08-11T17:22:47.660Z,32.40
2022-08-11T17:25:19.768Z,32.20
2022-08-11T17:27:52.145Z,32.10
2022-08-11T17:30:30.716Z,32.00
2022-08-11T17:33:30.248Z,31.90
2022-08-11T17:36:03.103Z,31.80
2022-08-11T17:38:34.763Z,31.70
2022-08-11T17:41:24.382Z,31.60
2022-08-11T17:44:14.912Z,31.50
2022-08-11T17:47:06.408Z,31.40
2022-08-11T17:49:39.772Z,31.40
2022-08-11T17:52:34.695Z,31.20
2022-08-11T17:55:52.058Z,30.90
2022-08-11T17:58:24.161Z,30.80
2022-08-11T18:00:56.313Z,30.70
2022-08-11T18:03:33.286Z,30.50
2022-08-11T18:06:06.078Z,30.40
2022-08-11T18:08:57.855Z,30.30
2022-08-11T18:12:11.132Z,30.20
2022-08-11T18:14:39.771Z,30.10
2022-08-11T18:17:28.094Z,29.90
2022-08-11T18:20:16.305Z,29.70
2022-08-11T18:23:06.323Z,29.60
2022-08-11T18:25:58.178Z,29.40
2022-08-11T18:28:49.431Z,29.30
2022-08-11T18:31:39.930Z,29.20
2022-08-11T18:34:31.254Z,29.00
2022-08-11T18:37:26.010Z,28.80
2022-08-11T18:40:20.905Z,28.80
2022-08-11T18:43:11.598Z,28.80
2022-08-11T18:46:06.090Z,28.90
2022-08-11T18:48:55.349Z,28.80
2022-08-11T18:51:45.302Z,28.70
2022-08-11T18:54:35.274Z,28.50
2022-08-11T18:57:25.820Z,28.20
2022-08-11T19:00:14.702Z,28.10
2022-08-11T19:03:05.537Z,28.00
2022-08-11T19:06:32.452Z,27.80
2022-08-11T19:08:50.728Z,27.40
2022-08-11T19:11:43.440Z,27.40
2022-08-11T19:14:34.077Z,27.30
2022-08-11T19:17:44.425Z,27.40
2022-08-11T19:20:16.201Z,27.40
2022-08-11T19:23:07.616Z,27.50
2022-08-11T19:25:57.603Z,27.40
2022-08-11T19:28:46.257Z,27.50
2022-08-11T19:31:35.534Z,27.30
2022-08-11T19:34:25.889Z,27.30
2022-08-11T19:37:14.991Z,27.20
2022-08-11T19:40:24.322Z,27.10
2022-08-11T19:43:19.948Z,26.90
2022-08-11T19:46:05.113Z,26.80
2022-08-11T19:48:55.405Z,26.80
2022-08-11T19:51:45.338Z,26.90
2022-08-11T19:54:35.066Z,26.50
2022-08-11T19:57:25.769Z,26.40
2022-08-11T20:00:15.036Z,26.60
2022-08-11T20:03:08.744Z,26.60
2022-08-11T20:05:59.649Z,26.40
2022-08-11T20:08:49.399Z,26.40
2022-08-11T20:11:39.079Z,26.50
2022-08-11T20:14:28.955Z,26.50
2022-08-11T20:17:18.529Z,26.50
2022-08-11T20:20:08.619Z,27.00
2022-08-11T20:22:57.784Z,27.00
2022-08-11T20:25:48.180Z,26.40
2022-08-11T20:28:38.884Z,26.10
2022-08-11T20:31:29.692Z,26.00
2022-08-11T20:34:19.877Z,25.90
2022-08-11T20:37:11.500Z,25.70
2022-08-11T20:40:01.605Z,25.80
2022-08-11T20:42:51.571Z,25.90
2022-08-11T20:45:47.286Z,26.10
2022-08-11T20:48:32.872Z,26.30
2022-08-11T20:51:22.969Z,26.00
2022-08-11T20:54:13.456Z,26.10
2022-08-11T20:57:04.056Z,26.20
2022-08-11T20:59:56.830Z,26.00
2022-08-11T21:02:50.050Z,26.00
2022-08-11T21:06:10.532Z,26.00
2022-08-11T21:08:29.837Z,25.90
2022-08-11T21:11:38.046Z,25.80
2022-08-11T21:14:31.107Z,25.70
2022-08-11T21:17:27.250Z,25.80
2022-08-11T21:20:20.768Z,25.70
2022-08-11T21:23:08.022Z,25.60
2022-08-11T21:26:02.085Z,25.30
2022-08-11T21:28:53.830Z,25.30
2022-08-11T21:31:44.843Z,25.40
2022-08-11T21:34:36.263Z,25.50
2022-08-11T21:37:25.933Z,25.20
2022-08-11T21:40:17.415Z,25.00
2022-08-11T21:43:08.911Z,25.20
2022-08-11T21:45:59.026Z,25.40
2022-08-11T21:48:48.730Z,25.30
2022-08-11T21:51:55.828Z,25.10
2022-08-11T21:54:46.769Z,25.00
2022-08-11T21:57:35.591Z,25.10
2022-08-11T22:00:27.835Z,25.10
2022-08-11T22:03:17.427Z,25.00
2022-08-11T22:06:07.968Z,25.10
2022-08-11T22:08:56.457Z,25.00
2022-08-11T22:11:45.521Z,25.00
2022-08-11T22:14:34.889Z,24.80
2022-08-11T22:17:23.752Z,24.60
2022-08-11T22:20:13.322Z,24.50
2022-08-11T22:23:03.514Z,24.40
2022-08-11T22:25:57.758Z,24.40
2022-08-11T22:29:02.019Z,24.20
2022-08-11T22:31:51.697Z,24.10
2022-08-11T22:34:53.091Z,24.10
2022-08-11T22:37:34.863Z,24.10
2022-08-11T22:40:25.034Z,24.00
2022-08-11T22:43:13.993Z,24.00
2022-08-11T22:46:03.037Z,24.00
2022-08-11T22:48:52.471Z,23.90
2022-08-11T22:51:42.527Z,23.80
2022-08-11T22:54:32.499Z,23.80
2022-08-11T22:57:21.767Z,23.80
2022-08-11T23:00:11.342Z,23.70
2022-08-11T23:03:01.122Z,23.60
2022-08-11T23:05:50.495Z,23.50
2022-08-11T23:08:39.558Z,23.40
2022-08-11T23:11:55.316Z,23.30
2022-08-11T23:14:19.763Z,23.20
2022-08-11T23:17:08.849Z,23.10
2022-08-11T23:20:06.802Z,23.00
2022-08-11T23:22:49.879Z,22.90
2022-08-11T23:25:39.570Z,22.70
2022-08-11T23:28:28.838Z,22.60
2022-08-11T23:31:18.722Z,22.60
2022-08-11T23:34:09.831Z,22.60
2022-08-11T23:37:00.331Z,22.60
2022-08-11T23:39:50.168Z,22.60
2022-08-11T23:42:39.151Z,22.50
2022-08-11T23:45:30.641Z,22.60
2022-08-11T23:48:21.191Z,22.60
2022-08-11T23:51:09.520Z,22.50
2022-08-11T23:53:59.047Z,22.40
2022-08-11T23:56:47.982Z,22.40
2022-08-11T23:59:37.139Z,22.40
